Latest Coastal Weather Observations for Wadeye (Port Keats)

IDD60701

Issued at 4:01 am CST Monday 29 May 2017 (issued every 10 minutes, with the page automatically refreshed every 10 minutes)

About coastal observations | Map of coastal stations | Coastal observations for NT | Marine services | Other Formats
Station Details ID: 014948 Name: PORT KEATS AIRPORT Lat: -14.25 Lon: 129.53 Height: 28.0 m
Data from the previous 72 hours. | See also: Recent months at Wadeye (Port Keats)
Date/Time
CST
Temp
°C
Wind Pressure Rain since
9am
mm
Weather Cloud Vis
km
Sea
Height
m
Swell
Dir  Spd
kts
Gust
kts
hPa Trend Height
m
Period
s
Dir
29/04:00am 25.8 SE 7 9 1011.6 - 0.0 - - - - - - -
29/03:30am 26.3 SE 7 10 1011.8 - 0.0 - - - - - - -
29/03:00am 26.9 SE 7 10 1011.9 - 0.0 - - - - - - -
29/02:30am 27.5 SE 8 10 1012.2 - 0.0 - - - - - - -
29/02:00am 27.6 SE 8 10 1012.0 - 0.0 - - - - - - -
29/01:30am 27.5 SE 8 10 1012.1 - 0.0 - - - - - - -
29/01:00am 27.2 SE 6 10 1012.2 - 0.0 - - - - - - -
29/12:30am 27.4 SE 7 9 1012.2 - 0.0 - - - - - - -
29/12:00am 27.3 SE 6 7 1012.5 - 0.0 - - - - - - -
 
Date/Time
CST
Temp
°C
Wind Pressure Rain since
9am
mm
Weather Cloud Vis
km
Sea
Height
m
Swell
Dir  Spd
kts
Gust
kts
hPa Trend Height
m
Period
s
Dir
28/11:30pm 27.6 SE 6 8 1012.7 - 0.0 - - - - - - -
28/11:00pm 27.6 SE 7 9 1012.7 - 0.0 - - - - - - -
28/10:30pm 27.7 SE 7 9 1012.8 - 0.0 - - - - - - -
28/10:00pm 27.8 SE 7 9 1012.9 - 0.0 - - - - - - -
28/09:30pm 27.6 SE 6 8 1012.8 - 0.0 - - - - - - -
28/09:00pm 27.8 SE 6 8 1012.6 - 0.0 - - - - - - -
28/08:30pm 28.2 ESE 6 8 1012.2 - 0.0 - - - - - - -
28/08:00pm 28.1 E 5 6 1012.0 - 0.0 - - - - - - -
28/07:30pm 28.2 SE 5 6 1011.7 - 0.0 - - - - - - -
28/07:00pm 25.6 SSE 1 4 1011.3 - 0.0 - - - - - - -
28/06:30pm 26.2 CALM 0 0 1011.1 - 0.0 - - - - - - -
28/06:00pm 28.1 CALM 0 3 1010.8 - 0.0 - - - - - - -
28/05:30pm 30.7 ESE 5 6 1010.5 - 0.0 - - - - - - -
28/05:00pm 31.8 ESE 7 11 1010.4 - 0.0 - - - - - - -
28/04:30pm 32.5 E 7 11 1010.2 - 0.0 - - - - - - -
28/04:00pm 32.4 E 8 11 1010.0 - 0.0 - - - - - - -
28/03:30pm 32.7 E 9 14 1010.1 - 0.0 - - - - - - -
28/03:00pm 33.0 ESE 9 13 1010.3 - 0.0 - - - - - - -
28/02:30pm 33.1 ESE 11 17 1010.5 - 0.0 - - - - - - -
28/02:00pm 32.7 ESE 9 15 1010.8 - 0.0 - - - - - - -
28/01:30pm 32.6 ESE 12 17 1011.1 - 0.0 - - - - - - -
28/01:00pm 32.4 ESE 13 19 1011.7 - 0.0 - - - - - - -
28/12:30pm 31.8 ESE 10 16 1012.3 - 0.0 - - - - - - -
28/12:00pm 31.0 E 11 16 1012.7 - 0.0 - - - - - - -
28/11:30am 30.7 E 9 13 1013.1 - 0.0 - - - - - - -
28/11:00am 29.5 E 9 14 1013.6 - 0.0 - - - - - - -
28/10:30am 29.2 E 10 15 1014.0 - 0.0 - - - - - - -
28/10:00am 28.3 E 9 14 1014.2 - 0.0 - - - - - - -
28/09:30am 27.6 E 7 9 1013.9 - 0.0 - - - - - - -
28/09:00am 26.3 ESE 7 11 1013.6 - 0.0 - - - - - - -
28/08:30am 25.8 ESE 7 10 1013.1 - 0.0 - - - - - - -
28/08:00am 24.6 ESE 6 8 1012.9 - 0.0 - - - - - - -
28/07:30am 23.0 SE 6 7 1012.6 - 0.0 - - - - - - -
28/07:00am 18.9 SSE 5 6 1012.4 - 0.0 - - - - - - -
28/06:30am 21.2 SE 5 7 1012.0 - 0.0 - - - - - - -
28/06:00am 23.6 SE 6 8 1011.7 - 0.0 - - - - - - -
28/05:30am 23.9 SE 8 10 1011.6 - 0.0 - - - - - - -
28/05:00am 24.0 SE 7 8 1011.4 - 0.0 - - - - - - -
28/04:30am 24.9 SE 6 8 1011.4 - 0.0 - - - - - - -
28/04:00am 25.2 SE 7 9 1011.5 - 0.0 - - - - - - -
28/03:30am 25.3 SE 7 9 1011.6 - 0.0 - - - - - - -
28/03:00am 24.8 SE 6 8 1011.9 - 0.0 - - - - - - -
28/02:30am 25.5 SE 6 8 1012.0 - 0.0 - - - - - - -
28/02:00am 25.8 SE 7 9 1012.0 - 0.0 - - - - - - -
28/01:30am 25.5 SE 7 10 1012.1 - 0.0 - - - - - - -
28/01:00am 21.7 SE 5 6 1012.3 - 0.0 - - - - - - -
28/12:30am 25.5 SE 6 8 1012.4 - 0.0 - - - - - - -
28/12:00am 25.9 SE 6 8 1012.5 - 0.0 - - - - - - -
 
Date/Time
CST
Temp
°C
Wind Pressure Rain since
9am
mm
Weather Cloud Vis
km
Sea
Height
m
Swell
Dir  Spd
kts
Gust
kts
hPa Trend Height
m
Period
s
Dir
27/11:30pm 26.0 SE 7 8 1012.5 - 0.0 - - - - - - -
27/11:20pm 25.6 SE 6 7 1012.6 - 0.0 - - - - - - -
27/11:00pm 20.6 SE 6 7 1012.7 - 0.0 - - - - - - -
27/10:30pm 20.4 SE 5 7 1012.7 - 0.0 - - - - - - -
27/10:00pm 20.8 SSE 4 5 1012.7 - 0.0 - - - - - - -
27/09:30pm 20.8 SSE 4 4 1012.7 - 0.0 - - - - - - -
27/09:00pm 21.2 SSE 2 3 1012.4 - 0.0 - - - - - - -
27/08:30pm 21.9 SSW 3 4 1012.1 - 0.0 - - - - - - -
27/08:00pm 22.6 SSW 3 4 1011.9 - 0.0 - - - - - - -
27/07:30pm 23.7 CALM 0 0 1011.6 - 0.0 - - - - - - -
27/07:00pm 24.5 NW 2 4 1011.2 - 0.0 - - - - - - -
27/06:30pm 26.1 SSW 3 4 1010.8 - 0.0 - - - - - - -
27/06:00pm 29.5 ESE 3 5 1010.3 - 0.0 - - - - - - -
27/05:30pm 31.3 SE 4 5 1010.0 - 0.0 - - - - - - -
27/05:00pm 32.0 ESE 5 6 1010.0 - 0.0 - - - - - - -
27/04:30pm 32.6 E 5 7 1010.0 - 0.0 - - - - - - -
27/04:00pm 33.0 E 9 13 1009.9 - 0.0 - - - - - - -
27/03:30pm 33.1 E 7 12 1009.9 - 0.0 - - - - - - -
27/03:00pm 33.3 ESE 12 15 1010.2 - 0.0 - - - - - - -
27/02:30pm 33.2 ESE 8 13 1010.5 - 0.0 - - - - - - -
27/02:00pm 32.8 ESE 8 14 1010.7 - 0.0 - - - - - - -
27/01:30pm 31.9 ESE 9 13 1011.2 - 0.0 - - - - - - -
27/01:00pm 31.7 E 11 19 1011.9 - 0.0 - - - - - - -
27/12:30pm 31.3 ESE 11 19 1012.4 - 0.0 - - - - - - -
27/12:00pm 30.9 ENE 8 13 1012.8 - 0.0 - - - - - - -
27/11:30am 30.5 E 9 15 1013.3 - 0.0 - - - - - - -
27/11:00am 29.5 E 10 16 1013.5 - 0.0 - - - - - - -
27/10:30am 29.3 E 7 11 1013.8 - 0.0 - - - - - - -
27/10:00am 28.4 E 6 9 1014.0 - 0.0 - - - - - - -
27/09:30am 27.3 E 6 9 1014.0 - 0.0 - - - - - - -
27/09:00am 26.2 E 8 12 1013.7 - 0.0 - - - - - - -
27/08:30am 25.1 ESE 7 10 1013.4 - 0.0 - - - - - - -
27/08:00am 24.0 ESE 6 9 1013.3 - 0.0 - - - - - - -
27/07:30am 23.7 ESE 6 8 1013.0 - 0.0 - - - - - - -
27/07:00am 23.7 ESE 6 7 1012.5 - 0.0 - - - - - - -
27/06:30am 23.5 SE 7 8 1012.1 - 0.0 - - - - - - -
27/06:00am 23.5 SE 7 8 1011.9 - 0.0 - - - - - - -
27/05:30am 23.8 SE 7 9 1011.9 - 0.0 - - - - - - -
27/05:00am 19.7 SE 4 5 1011.7 - 0.0 - - - - - - -
27/04:30am 21.3 SE 5 7 1011.5 - 0.0 - - - - - - -
27/04:00am 19.9 SSE 6 6 1011.4 - 0.0 - - - - - - -
27/03:30am 19.9 SE 5 6 1011.7 - 0.0 - - - - - - -
27/03:00am 20.9 SSE 3 4 1011.9 - 0.0 - - - - - - -
27/02:30am 23.1 NE 2 3 1012.2 - 0.0 - - - - - - -
27/02:00am 23.3 NNE 4 5 1012.4 - 0.0 - - - - - - -
27/01:30am 23.0 NE 4 9 1012.3 - 0.0 - - - - - - -
27/01:00am 22.7 SSE 4 5 1012.2 - 0.0 - - - - - - -
27/12:30am 23.9 SSE 4 5 1012.2 - 0.0 - - - - - - -
27/12:00am 24.0 SSE 5 6 1012.3 - 0.0 - - - - - - -
 
Date/Time
CST
Temp
°C
Wind Pressure Rain since
9am
mm
Weather Cloud Vis
km
Sea
Height
m
Swell
Dir  Spd
kts
Gust
kts
hPa Trend Height
m
Period
s
Dir
26/11:30pm 24.3 SSE 4 5 1012.4 - 0.0 - - - - - - -
26/11:00pm 24.2 SSE 5 6 1012.5 - 0.0 - - - - - - -
26/10:30pm 23.5 SE 5 7 1012.5 - 0.0 - - - - - - -
26/10:00pm 23.2 SSE 4 5 1012.4 - 0.0 - - - - - - -
26/09:30pm 23.3 S 1 3 1012.4 - 0.0 - - - - - - -
26/09:00pm 23.8 SSW 3 3 1012.2 - 0.0 - - - - - - -
26/08:30pm 24.1 CALM 0 3 1012.1 - 0.0 - - - - - - -
26/08:00pm 24.2 SSW 4 5 1011.9 - 0.0 - - - - - - -
26/07:30pm 24.4 CALM 0 3 1011.6 - 0.0 - - - - - - -
26/07:00pm 24.8 CALM 0 0 1011.3 - 0.0 - - - - - - -
26/06:30pm 25.5 CALM 0 0 1011.2 - 0.0 - - - - - - -
26/06:00pm 26.9 CALM 0 0 1010.9 - 0.0 - - - - - - -
26/05:30pm 29.1 CALM 0 0 1010.5 - 0.0 - - - - - - -
26/05:00pm 30.9 E 1 4 1010.2 - 0.0 - - - - - - -
26/04:30pm 31.3 E 4 6 1010.1 - 0.0 - - - - - - -
26/04:00pm 31.8 E 6 8 1010.2 - 0.0 - - - - - - -
26/03:30pm 32.3 ENE 9 11 1010.2 - 0.0 - - - - - - -
26/03:00pm 32.9 E 6 13 1010.2 - 0.0 - - - - - - -
26/02:30pm 33.1 E 9 13 1010.5 - 0.0 - - - - - - -
26/02:00pm 33.2 ENE 9 13 1010.8 - 0.0 - - - - - - -
26/01:30pm 32.2 ESE 13 20 1011.4 - 0.0 - - - - - - -
26/01:00pm 32.2 E 10 13 1011.8 - 0.0 - - - - - - -
26/12:30pm 31.8 ESE 12 19 1012.2 - 0.0 - - - - - - -
26/12:00pm 31.0 E 9 15 1012.7 - 0.0 - - - - - - -
26/11:30am 31.0 E 11 16 1013.2 - 0.0 - - - - - - -
26/11:00am 30.0 ESE 10 15 1013.5 - 0.0 - - - - - - -
26/10:30am 29.4 E 9 15 1013.8 - 0.0 - - - - - - -
26/10:00am 28.6 E 9 14 1013.9 - 0.0 - - - - - - -
26/09:30am 27.7 E 10 15 1014.0 - 0.0 - - - - - - -
26/09:00am 26.9 E 9 14 1013.8 - 0.0 - - - - - - -
26/08:30am 25.9 ESE 7 11 1013.5 - 0.0 - - - - - - -
26/08:00am 25.3 ESE 8 13 1013.3 - 0.0 - - - - - - -
26/07:30am 24.7 SE 7 10 1012.9 - 0.0 - - - - - - -
26/07:00am 24.7 SE 8 10 1012.5 - 0.0 - - - - - - -
26/06:30am 24.8 SE 7 10 1012.0 - 0.0 - - - - - - -
26/06:00am 25.2 SE 8 12 1011.7 - 0.0 - - - - - - -
26/05:30am 25.2 SE 7 8 1011.3 - 0.0 - - - - - - -
26/05:00am 25.8 SE 7 8 1011.2 - 0.0 - - - - - - -
26/04:30am 25.5 SE 7 8 1011.1 - 0.0 - - - - - - -

Other Formats:

Comma delimited format used in spreadsheet applications
http://www.bom.gov.au/fwo/IDD60701/IDD60701.95111.axf

JavaScript Object Notation format (JSON) in row-major order
http://www.bom.gov.au/fwo/IDD60701/IDD60701.95111.json